createdAt,value
2019-05-22T00:01:00.728Z,12.46
2019-05-22T00:03:31.163Z,12.43
2019-05-22T00:05:59.895Z,12.53
2019-05-22T00:08:30.414Z,12.30
2019-05-22T00:10:59.614Z,12.16
2019-05-22T00:13:34.940Z,12.27
2019-05-22T00:16:04.300Z,12.24
2019-05-22T00:18:33.919Z,12.33
2019-05-22T00:21:04.552Z,12.36
2019-05-22T00:23:33.610Z,12.72
2019-05-22T00:26:02.637Z,12.79
2019-05-22T00:28:32.159Z,12.70
2019-05-22T00:31:01.554Z,12.52
2019-05-22T00:33:31.362Z,13.10
2019-05-22T00:36:00.791Z,12.85
2019-05-22T00:38:31.753Z,12.88
2019-05-22T00:41:05.100Z,12.69
2019-05-22T00:43:41.967Z,12.78
2019-05-22T00:46:12.576Z,12.57
2019-05-22T00:48:41.922Z,12.69
2019-05-22T00:51:22.532Z,12.97
2019-05-22T00:54:09.491Z,12.75
2019-05-22T00:56:52.009Z,12.31
2019-05-22T00:59:36.787Z,12.07
2019-05-22T01:02:19.544Z,12.02
2019-05-22T01:04:49.845Z,11.94
2019-05-22T01:07:18.562Z,11.76
2019-05-22T01:09:53.081Z,11.59
2019-05-22T01:12:43.748Z,11.66
2019-05-22T01:15:15.093Z,11.73
2019-05-22T01:17:45.115Z,11.68
2019-05-22T01:20:19.546Z,11.44
2019-05-22T01:22:49.320Z,11.69
2019-05-22T01:25:20.898Z,11.70
2019-05-22T01:27:49.807Z,11.44
2019-05-22T01:30:23.705Z,12.26
2019-05-22T01:32:54.544Z,11.94
2019-05-22T01:35:37.011Z,11.59
2019-05-22T01:38:06.502Z,11.48
2019-05-22T01:40:42.480Z,11.34
2019-05-22T01:43:13.041Z,11.51
2019-05-22T01:45:44.356Z,12.23
2019-05-22T01:48:18.098Z,11.96
2019-05-22T01:50:49.282Z,11.93
2019-05-22T01:53:21.033Z,11.53
2019-05-22T01:55:52.452Z,11.56
2019-05-22T01:58:21.802Z,11.63
2019-05-22T02:00:53.787Z,11.52
2019-05-22T02:03:25.357Z,12.00
2019-05-22T02:05:55.164Z,11.56
2019-05-22T02:08:25.490Z,11.44
2019-05-22T02:10:58.252Z,11.52
2019-05-22T02:13:31.608Z,11.24
2019-05-22T02:16:01.834Z,11.48
2019-05-22T02:18:34.165Z,11.54
2019-05-22T02:21:05.648Z,11.34
2019-05-22T02:23:36.050Z,11.25
2019-05-22T02:26:07.522Z,11.00
2019-05-22T02:28:39.039Z,11.10
2019-05-22T02:31:07.748Z,11.05
2019-05-22T02:33:39.477Z,11.00
2019-05-22T02:36:08.132Z,10.73
2019-05-22T02:38:37.640Z,10.65
2019-05-22T02:41:08.448Z,10.57
2019-05-22T02:43:37.386Z,10.52
2019-05-22T02:46:07.679Z,10.48
2019-05-22T02:48:37.273Z,10.31
2019-05-22T02:51:06.057Z,10.42
2019-05-22T02:53:35.157Z,10.02
2019-05-22T02:56:04.088Z,10.33
2019-05-22T02:58:33.573Z,10.28
2019-05-22T03:01:05.602Z,10.58
2019-05-22T03:03:35.351Z,10.36
2019-05-22T03:06:10.272Z,10.34
2019-05-22T03:08:58.402Z,10.27
2019-05-22T03:11:39.775Z,10.30
2019-05-22T03:14:09.436Z,10.41
2019-05-22T03:16:56.432Z,10.27
2019-05-22T03:19:41.288Z,10.34
2019-05-22T03:22:31.451Z,10.86
2019-05-22T03:25:05.441Z,10.98
2019-05-22T03:27:40.017Z,10.87
2019-05-22T03:30:24.511Z,10.76
2019-05-22T03:32:56.722Z,10.98
2019-05-22T03:35:28.145Z,11.19
2019-05-22T03:37:59.305Z,11.09
2019-05-22T03:40:31.009Z,10.77
2019-05-22T03:43:04.114Z,10.45
2019-05-22T03:45:33.269Z,10.23
2019-05-22T03:48:05.276Z,10.40
2019-05-22T03:50:34.247Z,10.45
2019-05-22T03:53:18.141Z,10.83
2019-05-22T03:55:49.043Z,10.40
2019-05-22T03:58:21.271Z,10.40
2019-05-22T04:00:53.115Z,10.43
2019-05-22T04:03:24.427Z,10.59
2019-05-22T04:05:54.366Z,10.59
2019-05-22T04:08:26.680Z,10.85
2019-05-22T04:11:09.896Z,11.08
2019-05-22T04:13:39.510Z,11.16
2019-05-22T04:16:10.514Z,11.13
2019-05-22T04:18:40.880Z,11.23
2019-05-22T04:21:09.621Z,11.19
2019-05-22T04:23:40.312Z,11.43
2019-05-22T04:26:12.799Z,12.01
2019-05-22T04:28:47.743Z,14.37
2019-05-22T04:31:16.923Z,14.69
2019-05-22T04:33:45.666Z,16.95
2019-05-22T04:36:15.221Z,17.55
2019-05-22T04:38:46.521Z,17.72
2019-05-22T04:41:16.993Z,17.72
2019-05-22T04:43:45.808Z,18.39
2019-05-22T04:46:16.712Z,18.44
2019-05-22T04:48:46.612Z,17.55
2019-05-22T04:51:23.603Z,17.34
2019-05-22T04:53:53.536Z,17.46
2019-05-22T04:56:23.029Z,17.35
2019-05-22T04:58:53.483Z,16.93
2019-05-22T05:01:24.152Z,17.09
2019-05-22T05:03:53.583Z,17.07
2019-05-22T05:06:25.017Z,17.03
2019-05-22T05:08:54.324Z,17.23
2019-05-22T05:11:23.232Z,16.72
2019-05-22T05:13:52.211Z,16.42
2019-05-22T05:16:20.868Z,17.10
2019-05-22T05:18:49.511Z,17.20
2019-05-22T05:21:18.610Z,17.77
2019-05-22T05:23:47.487Z,17.72
2019-05-22T05:26:16.818Z,17.72
2019-05-22T05:28:46.297Z,17.10
2019-05-22T05:31:15.338Z,18.09
2019-05-22T05:33:55.759Z,18.09
2019-05-22T05:36:24.610Z,18.62
2019-05-22T05:38:56.307Z,18.72
2019-05-22T05:41:24.884Z,18.85
2019-05-22T05:43:53.736Z,19.07
2019-05-22T05:46:22.484Z,19.35
2019-05-22T05:48:52.397Z,19.73
2019-05-22T05:51:23.374Z,19.66
2019-05-22T05:54:04.854Z,19.05
2019-05-22T05:56:35.699Z,19.55
2019-05-22T05:59:07.650Z,19.71
2019-05-22T06:01:41.400Z,19.64
2019-05-22T06:04:12.427Z,20.00
2019-05-22T06:06:44.049Z,19.62
2019-05-22T06:09:16.840Z,19.98
2019-05-22T06:11:48.858Z,20.00
2019-05-22T06:14:30.066Z,20.23
2019-05-22T06:17:08.747Z,20.16
2019-05-22T06:19:46.553Z,20.68
2019-05-22T06:22:17.358Z,20.69
2019-05-22T06:24:52.194Z,20.85
2019-05-22T06:27:25.746Z,20.70
2019-05-22T06:30:06.349Z,20.56
2019-05-22T06:33:15.108Z,21.05
2019-05-22T06:35:46.267Z,20.27
2019-05-22T06:38:48.009Z,20.49
2019-05-22T06:41:18.851Z,20.59
2019-05-22T06:43:50.722Z,20.36
2019-05-22T06:46:44.643Z,20.13
2019-05-22T06:49:32.503Z,19.80
2019-05-22T06:52:01.876Z,20.14
2019-05-22T06:54:30.738Z,20.72
2019-05-22T06:56:59.401Z,20.83
2019-05-22T06:59:28.343Z,21.36
2019-05-22T07:02:01.521Z,21.07
2019-05-22T07:04:30.972Z,20.72
2019-05-22T07:07:00.466Z,21.31
2019-05-22T07:09:29.733Z,20.86
2019-05-22T07:11:58.661Z,20.94
2019-05-22T07:14:28.858Z,21.37
2019-05-22T07:17:00.063Z,21.94
2019-05-22T07:19:29.195Z,21.10
2019-05-22T07:21:59.029Z,21.20
2019-05-22T07:24:29.279Z,21.31
2019-05-22T07:27:01.118Z,21.83
2019-05-22T07:29:30.309Z,22.44
2019-05-22T07:32:02.324Z,22.78
2019-05-22T07:34:31.131Z,21.71
2019-05-22T07:36:59.985Z,22.29
2019-05-22T07:39:33.373Z,22.89
2019-05-22T07:42:02.033Z,23.08
2019-05-22T07:44:30.735Z,23.21
2019-05-22T07:47:00.065Z,22.77
2019-05-22T07:49:29.217Z,23.07
2019-05-22T07:52:01.724Z,23.30
2019-05-22T07:54:28.724Z,23.50
2019-05-22T07:56:57.601Z,23.09
2019-05-22T07:59:26.472Z,23.64
2019-05-22T08:01:58.457Z,23.66
2019-05-22T08:04:27.438Z,23.73
2019-05-22T08:06:56.788Z,23.85
2019-05-22T08:09:26.094Z,23.46
2019-05-22T08:11:54.906Z,23.51
2019-05-22T08:14:24.357Z,22.89
2019-05-22T08:16:53.572Z,23.15
2019-05-22T08:19:23.344Z,22.89
2019-05-22T08:22:06.256Z,23.51
2019-05-22T08:24:24.767Z,23.68
2019-05-22T08:26:55.176Z,24.25
2019-05-22T08:29:24.284Z,24.51
2019-05-22T08:31:53.467Z,23.67
2019-05-22T08:34:24.210Z,24.41
2019-05-22T08:36:54.125Z,24.23
2019-05-22T08:39:23.762Z,24.63
2019-05-22T08:41:58.842Z,24.75
2019-05-22T08:44:24.622Z,24.89
2019-05-22T08:46:53.861Z,24.05
2019-05-22T08:49:23.947Z,24.64
2019-05-22T08:51:52.869Z,24.97
2019-05-22T08:54:21.932Z,23.92
2019-05-22T08:56:52.035Z,24.34
2019-05-22T08:59:21.590Z,24.60
2019-05-22T09:01:50.636Z,23.95
2019-05-22T09:04:23.729Z,24.29
2019-05-22T09:06:52.502Z,24.46
2019-05-22T09:09:21.343Z,24.50
2019-05-22T09:11:50.137Z,25.25
2019-05-22T09:14:19.042Z,25.76
2019-05-22T09:16:47.994Z,24.85
2019-05-22T09:19:16.840Z,24.77
2019-05-22T09:21:45.793Z,25.07
2019-05-22T09:24:16.804Z,24.81
2019-05-22T09:26:45.556Z,25.11
2019-05-22T09:29:14.427Z,25.50
2019-05-22T09:31:43.385Z,25.65
2019-05-22T09:34:12.149Z,25.09
2019-05-22T09:36:41.016Z,24.74
2019-05-22T09:39:10.661Z,25.13
2019-05-22T09:41:39.335Z,25.02
2019-05-22T09:44:08.286Z,24.64
2019-05-22T09:46:36.928Z,24.81
2019-05-22T09:49:06.150Z,24.95
2019-05-22T09:51:34.836Z,25.09
2019-05-22T09:54:03.776Z,25.33
2019-05-22T09:56:32.606Z,25.31
2019-05-22T09:59:01.790Z,24.99
2019-05-22T10:01:31.093Z,25.80
2019-05-22T10:03:59.955Z,25.96
2019-05-22T10:06:28.668Z,25.70
2019-05-22T10:08:57.420Z,25.75
2019-05-22T10:11:27.759Z,25.41
2019-05-22T10:13:58.034Z,25.38
2019-05-22T10:16:26.733Z,25.08
2019-05-22T10:18:55.606Z,25.45
2019-05-22T10:21:24.691Z,25.59
2019-05-22T10:23:53.798Z,25.05
2019-05-22T10:26:22.923Z,25.01
2019-05-22T10:28:53.227Z,24.92
2019-05-22T10:31:22.631Z,25.18
2019-05-22T10:33:52.174Z,24.58
2019-05-22T10:36:22.751Z,24.48
2019-05-22T10:38:51.605Z,25.14
2019-05-22T10:41:21.222Z,25.12
2019-05-22T10:43:50.942Z,25.40
2019-05-22T10:46:19.619Z,25.23
2019-05-22T10:48:49.267Z,25.00
2019-05-22T10:51:18.126Z,24.67
2019-05-22T10:53:47.439Z,24.69
2019-05-22T10:56:19.311Z,24.84
2019-05-22T10:58:48.455Z,24.73
2019-05-22T11:01:17.484Z,24.87
2019-05-22T11:03:47.074Z,24.85
2019-05-22T11:06:16.272Z,25.82
2019-05-22T11:08:45.360Z,25.63
2019-05-22T11:11:15.143Z,25.70
2019-05-22T11:13:59.862Z,24.86
2019-05-22T11:16:14.541Z,25.13
2019-05-22T11:18:43.664Z,25.85
2019-05-22T11:21:12.501Z,26.08
2019-05-22T11:23:51.580Z,25.90
2019-05-22T11:26:12.072Z,24.85
2019-05-22T11:28:40.901Z,24.84
2019-05-22T11:31:09.526Z,24.48
2019-05-22T11:33:38.211Z,24.76
2019-05-22T11:36:07.437Z,24.75
2019-05-22T11:38:36.112Z,24.95
2019-05-22T11:41:05.804Z,25.42
2019-05-22T11:43:37.528Z,25.27
2019-05-22T11:46:06.364Z,24.88
2019-05-22T11:48:35.143Z,24.99
2019-05-22T11:51:03.846Z,25.24
2019-05-22T11:53:32.711Z,25.65
2019-05-22T11:56:01.422Z,25.34
2019-05-22T11:58:30.116Z,25.97
2019-05-22T12:00:58.766Z,25.74
2019-05-22T12:03:28.969Z,25.63
2019-05-22T12:05:58.103Z,25.61
2019-05-22T12:08:27.203Z,25.62
2019-05-22T12:10:56.510Z,25.77
2019-05-22T12:13:26.044Z,25.63
2019-05-22T12:15:56.362Z,25.50
2019-05-22T12:18:26.117Z,26.35
2019-05-22T12:20:54.783Z,26.46
2019-05-22T12:23:24.305Z,26.39
2019-05-22T12:25:53.052Z,26.60
2019-05-22T12:28:22.030Z,25.98
2019-05-22T12:30:50.871Z,25.85
2019-05-22T12:33:19.923Z,26.09
2019-05-22T12:35:49.352Z,26.66
2019-05-22T12:38:26.688Z,26.76
2019-05-22T12:40:54.381Z,27.06
2019-05-22T12:43:23.709Z,26.97
2019-05-22T12:45:53.573Z,26.75
2019-05-22T12:48:23.587Z,26.70
2019-05-22T12:50:52.427Z,25.88
2019-05-22T12:53:23.177Z,26.23
2019-05-22T12:55:52.595Z,27.01
2019-05-22T12:58:21.526Z,26.72
2019-05-22T13:00:50.686Z,26.16
2019-05-22T13:03:20.998Z,26.35
2019-05-22T13:05:51.241Z,26.11
2019-05-22T13:08:21.747Z,25.98
2019-05-22T13:10:50.744Z,26.21
2019-05-22T13:13:20.066Z,26.70
2019-05-22T13:15:49.600Z,26.76
2019-05-22T13:18:20.636Z,26.83
2019-05-22T13:20:50.984Z,26.61
2019-05-22T13:23:22.784Z,26.32
2019-05-22T13:25:52.178Z,26.41
2019-05-22T13:28:21.888Z,26.64
2019-05-22T13:30:53.605Z,26.59
2019-05-22T13:33:25.907Z,27.05
2019-05-22T13:35:56.117Z,26.89
2019-05-22T13:38:25.090Z,26.95
2019-05-22T13:40:54.196Z,26.81
2019-05-22T13:43:24.045Z,27.01
2019-05-22T13:45:53.466Z,26.03
2019-05-22T13:48:22.188Z,26.23
2019-05-22T13:50:51.546Z,26.03
2019-05-22T13:53:22.420Z,25.91
2019-05-22T13:55:52.033Z,25.96
2019-05-22T13:58:21.671Z,25.04
2019-05-22T14:00:51.669Z,25.54
2019-05-22T14:03:20.898Z,25.36
2019-05-22T14:05:50.143Z,25.60
2019-05-22T14:08:19.461Z,25.95
2019-05-22T14:10:50.188Z,26.12
2019-05-22T14:13:19.206Z,25.54
2019-05-22T14:15:55.790Z,25.70
2019-05-22T14:18:18.764Z,25.82
2019-05-22T14:20:49.170Z,26.03
2019-05-22T14:23:18.130Z,26.11
2019-05-22T14:25:50.194Z,25.96
2019-05-22T14:28:19.322Z,25.88
2019-05-22T14:30:48.111Z,25.51
2019-05-22T14:33:16.951Z,25.71
2019-05-22T14:35:48.736Z,25.99
2019-05-22T14:38:17.211Z,26.13
2019-05-22T14:40:46.012Z,26.09
2019-05-22T14:43:15.086Z,25.95
2019-05-22T14:45:43.931Z,25.97
2019-05-22T14:48:13.136Z,25.04
2019-05-22T14:50:41.949Z,25.18
2019-05-22T14:53:12.479Z,25.36
2019-05-22T14:55:41.568Z,25.33
2019-05-22T14:58:11.691Z,25.65
2019-05-22T15:00:41.757Z,25.37
2019-05-22T15:03:11.231Z,25.49
2019-05-22T15:05:40.196Z,25.80
2019-05-22T15:08:08.952Z,25.84
2019-05-22T15:10:38.252Z,25.00
2019-05-22T15:13:08.058Z,25.08
2019-05-22T15:15:40.313Z,25.20
2019-05-22T15:18:07.513Z,25.49
2019-05-22T15:20:44.453Z,25.45
2019-05-22T15:23:13.575Z,25.47
2019-05-22T15:25:42.251Z,25.36
2019-05-22T15:28:11.968Z,25.10
2019-05-22T15:30:41.039Z,24.97
2019-05-22T15:33:09.796Z,24.79
2019-05-22T15:35:38.759Z,24.87
2019-05-22T15:38:10.427Z,24.71
2019-05-22T15:40:39.747Z,24.82
2019-05-22T15:43:09.653Z,24.77
2019-05-22T15:45:40.231Z,24.84
2019-05-22T15:48:12.319Z,24.58
2019-05-22T15:50:44.909Z,24.83
2019-05-22T15:53:15.303Z,24.79
2019-05-22T15:55:47.661Z,24.67
2019-05-22T15:58:18.126Z,24.53
2019-05-22T16:00:47.741Z,24.57
2019-05-22T16:03:21.260Z,24.40
2019-05-22T16:05:51.673Z,24.34
2019-05-22T16:08:20.776Z,24.65
2019-05-22T16:10:52.356Z,24.76
2019-05-22T16:13:22.986Z,24.72
2019-05-22T16:15:54.831Z,24.59
2019-05-22T16:18:28.484Z,24.51
2019-05-22T16:21:01.373Z,24.45
2019-05-22T16:23:33.216Z,24.03
2019-05-22T16:26:03.537Z,24.40
2019-05-22T16:28:36.305Z,24.12
2019-05-22T16:31:07.797Z,23.92
2019-05-22T16:33:38.017Z,23.94
2019-05-22T16:36:06.995Z,23.82
2019-05-22T16:38:37.648Z,23.84
2019-05-22T16:41:06.825Z,23.86
2019-05-22T16:43:49.033Z,24.09
2019-05-22T16:46:10.030Z,23.81
2019-05-22T16:48:39.812Z,24.01
2019-05-22T16:51:10.421Z,23.66
2019-05-22T16:53:40.165Z,23.79
2019-05-22T16:56:11.324Z,23.62
2019-05-22T16:58:40.203Z,23.43
2019-05-22T17:01:10.190Z,23.27
2019-05-22T17:03:40.346Z,23.37
2019-05-22T17:06:09.162Z,23.25
2019-05-22T17:08:37.802Z,23.29
2019-05-22T17:11:08.033Z,23.25
2019-05-22T17:13:36.926Z,23.31
2019-05-22T17:16:06.981Z,23.06
2019-05-22T17:18:46.623Z,22.95
2019-05-22T17:21:08.913Z,22.94
2019-05-22T17:23:37.647Z,23.04
2019-05-22T17:26:07.318Z,22.87
2019-05-22T17:28:36.243Z,22.90
2019-05-22T17:31:05.995Z,22.85
2019-05-22T17:33:35.486Z,22.82
2019-05-22T17:36:05.787Z,22.70
2019-05-22T17:38:35.351Z,22.75
2019-05-22T17:41:04.801Z,22.64
2019-05-22T17:43:34.208Z,22.63
2019-05-22T17:46:04.292Z,22.68
2019-05-22T17:48:33.814Z,22.48
2019-05-22T17:51:03.131Z,22.68
2019-05-22T17:53:31.861Z,22.84
2019-05-22T17:56:00.533Z,22.93
2019-05-22T17:58:30.381Z,22.71
2019-05-22T18:01:00.573Z,22.70
2019-05-22T18:03:29.473Z,22.35
2019-05-22T18:05:58.567Z,22.16
2019-05-22T18:08:28.039Z,22.06
2019-05-22T18:10:57.264Z,22.24
2019-05-22T18:13:26.381Z,22.12
2019-05-22T18:15:55.084Z,21.72
2019-05-22T18:18:23.802Z,21.52
2019-05-22T18:20:52.483Z,21.58
2019-05-22T18:23:21.302Z,21.50
2019-05-22T18:25:50.238Z,21.64
2019-05-22T18:28:19.278Z,21.41
2019-05-22T18:30:48.171Z,21.44
2019-05-22T18:33:16.820Z,21.14
2019-05-22T18:35:45.479Z,21.00
2019-05-22T18:38:14.212Z,21.04
2019-05-22T18:40:42.788Z,21.03
2019-05-22T18:43:11.841Z,21.02
2019-05-22T18:45:40.665Z,21.02
2019-05-22T18:48:09.823Z,21.12
2019-05-22T18:50:38.683Z,21.09
2019-05-22T18:53:07.728Z,21.16
2019-05-22T18:55:36.423Z,21.11
2019-05-22T18:58:05.300Z,20.74
2019-05-22T19:00:34.532Z,20.69
2019-05-22T19:03:03.469Z,20.66
2019-05-22T19:05:36.059Z,20.55
2019-05-22T19:08:07.610Z,20.56
2019-05-22T19:10:36.403Z,20.68
2019-05-22T19:13:05.215Z,20.46
2019-05-22T19:15:33.890Z,20.35
2019-05-22T19:18:02.641Z,20.27
2019-05-22T19:20:31.381Z,20.21
2019-05-22T19:23:03.174Z,20.18
2019-05-22T19:25:32.006Z,20.07
2019-05-22T19:28:00.763Z,19.82
2019-05-22T19:30:29.986Z,19.83
2019-05-22T19:32:58.908Z,19.77
2019-05-22T19:35:27.609Z,19.61
2019-05-22T19:37:56.692Z,19.63
2019-05-22T19:40:25.492Z,19.57
2019-05-22T19:42:54.706Z,19.54
2019-05-22T19:45:23.427Z,19.44
2019-05-22T19:47:55.903Z,19.35
2019-05-22T19:50:25.758Z,19.35
2019-05-22T19:52:55.763Z,19.18
2019-05-22T19:55:27.724Z,19.33
2019-05-22T19:57:57.407Z,19.40
2019-05-22T20:00:26.517Z,19.16
2019-05-22T20:02:55.541Z,19.23
2019-05-22T20:05:26.076Z,19.13
2019-05-22T20:07:55.489Z,19.25
2019-05-22T20:10:25.466Z,19.30
2019-05-22T20:12:54.711Z,19.34
2019-05-22T20:15:24.047Z,19.05
2019-05-22T20:17:52.703Z,19.02
2019-05-22T20:20:23.281Z,19.11
2019-05-22T20:22:52.346Z,19.22
2019-05-22T20:25:22.193Z,18.96
2019-05-22T20:27:51.283Z,18.91
2019-05-22T20:30:21.974Z,19.07
2019-05-22T20:32:51.042Z,19.03
2019-05-22T20:35:20.456Z,19.12
2019-05-22T20:37:49.481Z,19.17
2019-05-22T20:40:20.396Z,19.04
2019-05-22T20:42:49.452Z,18.82
2019-05-22T20:45:21.168Z,18.70
2019-05-22T20:47:54.413Z,18.90
2019-05-22T20:50:24.545Z,18.74
2019-05-22T20:52:53.467Z,18.35
2019-05-22T20:55:22.728Z,18.25
2019-05-22T20:57:53.127Z,18.11
2019-05-22T21:00:21.951Z,18.10
2019-05-22T21:02:53.643Z,18.01
2019-05-22T21:05:25.429Z,18.05
2019-05-22T21:07:57.001Z,17.95
2019-05-22T21:10:26.147Z,18.00
2019-05-22T21:12:56.437Z,18.06
2019-05-22T21:15:25.159Z,17.97
2019-05-22T21:17:55.786Z,17.78
2019-05-22T21:20:25.904Z,18.01
2019-05-22T21:22:54.933Z,18.23
2019-05-22T21:25:25.003Z,18.01
2019-05-22T21:27:54.029Z,17.96
2019-05-22T21:30:24.064Z,18.35
2019-05-22T21:32:53.818Z,18.24
2019-05-22T21:35:23.736Z,18.21
2019-05-22T21:37:52.845Z,18.28
2019-05-22T21:40:24.535Z,17.94
2019-05-22T21:42:54.892Z,17.83
2019-05-22T21:45:24.174Z,18.05
2019-05-22T21:47:52.857Z,17.92
2019-05-22T21:50:21.971Z,17.73
2019-05-22T21:52:50.608Z,17.51
2019-05-22T21:55:20.024Z,17.44
2019-05-22T21:57:48.911Z,17.40
2019-05-22T22:00:25.028Z,17.40
2019-05-22T22:02:54.757Z,16.88
2019-05-22T22:05:23.673Z,16.77
2019-05-22T22:07:52.550Z,16.54
2019-05-22T22:10:22.779Z,16.37
2019-05-22T22:12:53.624Z,16.42
2019-05-22T22:15:34.860Z,16.48
2019-05-22T22:18:06.457Z,16.35
2019-05-22T22:20:35.547Z,16.39
2019-05-22T22:23:05.466Z,16.42
2019-05-22T22:25:34.600Z,16.47
2019-05-22T22:28:03.391Z,16.72
2019-05-22T22:30:50.143Z,16.70
2019-05-22T22:33:23.577Z,16.81
2019-05-22T22:35:53.911Z,16.69
2019-05-22T22:38:25.034Z,16.80
2019-05-22T22:40:56.962Z,16.66
2019-05-22T22:43:32.542Z,16.65
2019-05-22T22:46:19.954Z,16.37
2019-05-22T22:48:51.840Z,16.28
2019-05-22T22:51:22.307Z,16.28
2019-05-22T22:53:51.860Z,16.43
2019-05-22T22:56:20.866Z,16.43
2019-05-22T22:58:49.579Z,16.56
2019-05-22T23:01:21.491Z,16.27
2019-05-22T23:03:52.850Z,16.23
2019-05-22T23:06:21.792Z,16.18
2019-05-22T23:08:51.900Z,16.24
2019-05-22T23:11:22.627Z,16.66
2019-05-22T23:13:52.642Z,16.58
2019-05-22T23:16:23.156Z,16.50
2019-05-22T23:19:13.330Z,16.29
2019-05-22T23:21:40.684Z,16.22
2019-05-22T23:24:09.896Z,16.00
2019-05-22T23:26:40.273Z,15.72
2019-05-22T23:29:09.004Z,15.88
2019-05-22T23:31:38.370Z,15.93
2019-05-22T23:34:09.127Z,16.00
2019-05-22T23:36:39.508Z,15.59
2019-05-22T23:39:12.961Z,15.44
2019-05-22T23:41:43.131Z,15.37
2019-05-22T23:44:14.462Z,15.46
2019-05-22T23:46:45.018Z,15.62
2019-05-22T23:49:16.053Z,15.56
2019-05-22T23:51:45.498Z,15.79
2019-05-22T23:54:14.359Z,16.09
2019-05-22T23:56:44.447Z,16.18
2019-05-22T23:59:16.763Z,16.15
